Time;durP1;ratioP1;P1;durP2;ratioP2;P2;SDS_P1;SDS_P2;PMS_P1;PMS_P2;Temp;Humidity;BMP_temperature;BMP_pressure;BME280_temperature;BME280_humidity;BME280_pressure;Samples;Min_cycle;Max_cycle;Signal;HPM_P1;HPM_P2
2022/10/18 00:01:14;;;;;;;92.72;47.72;;;13.20;99.90;;;;;;5085677;27;20724;-65
2022/10/18 00:03:40;;;;;;;101.82;52.83;;;12.80;99.90;;;;;;5086895;27;20442;-65
2022/10/18 00:06:08;;;;;;;107.53;52.88;;;13.30;99.90;;;;;;5105907;27;20035;-65
2022/10/18 00:08:35;;;;;;;126.50;56.20;;;12.80;99.90;;;;;;5087438;27;20075;-64
2022/10/18 00:11:01;;;;;;;120.13;54.80;;;13.30;99.90;;;;;;5090436;27;20055;-65
2022/10/18 00:13:27;;;;;;;114.63;53.33;;;12.80;99.90;;;;;;5087827;27;20047;-64
2022/10/18 00:15:59;;;;;;;90.80;46.60;;;13.00;99.90;;;;;;5088363;27;20086;-65
2022/10/18 00:18:25;;;;;;;100.88;49.55;;;12.70;99.90;;;;;;5071488;27;20770;-65
2022/10/18 00:21:01;;;;;;;77.88;41.72;;;13.20;99.90;;;;;;5090367;27;20568;-66
2022/10/18 00:23:28;;;;;;;75.03;39.70;;;13.30;99.90;;;;;;5088099;27;20508;-64
2022/10/18 00:26:08;;;;;;;77.15;40.88;;;13.40;99.90;;;;;;5089090;27;20043;-65
2022/10/18 00:28:35;;;;;;;85.07;42.05;;;13.10;99.90;;;;;;5089539;27;20039;-65
2022/10/18 00:31:22;;;;;;;73.10;39.97;;;12.90;99.90;;;;;;5108087;27;20754;-65
2022/10/18 00:33:52;;;;;;;81.20;40.25;;;13.20;99.90;;;;;;5090242;27;21150;-65
2022/10/18 00:36:18;;;;;;;84.20;40.03;;;12.80;99.90;;;;;;5089684;27;20523;-65
2022/10/18 00:38:45;;;;;;;82.70;39.53;;;12.70;99.90;;;;;;5107740;27;20039;-65
2022/10/18 00:41:14;;;;;;;74.35;37.15;;;12.70;99.90;;;;;;5087130;27;20054;-65
2022/10/18 00:43:53;;;;;;;84.57;41.08;;;13.10;99.90;;;;;;5104061;27;20040;-65
2022/10/18 00:46:19;;;;;;;76.80;36.35;;;12.90;99.90;;;;;;5085359;27;20043;-66
2022/10/18 00:48:45;;;;;;;73.57;38.35;;;12.60;99.90;;;;;;5069321;27;21521;-65
2022/10/18 00:51:11;;;;;;;96.65;44.35;;;12.90;99.90;;;;;;5070740;27;20091;-65
2022/10/18 00:53:38;;;;;;;100.65;45.85;;;12.60;99.90;;;;;;5050445;27;20118;-65
2022/10/18 00:56:04;;;;;;;99.75;49.47;;;13.10;99.90;;;;;;5109853;27;20177;-65
2022/10/18 00:58:30;;;;;;;135.00;55.40;;;13.00;99.90;;;;;;5124744;27;20035;-65
2022/10/18 01:00:56;;;;;;;222.23;62.60;;;12.90;99.90;;;;;;5092635;27;20039;-65
2022/10/18 01:03:21;;;;;;;505.45;93.10;;;12.70;99.90;;;;;;5069139;27;20381;-64
2022/10/18 01:05:47;;;;;;;465.23;83.93;;;12.70;99.90;;;;;;5089299;27;20070;-65
2022/10/18 01:08:22;;;;;;;565.70;88.10;;;12.30;99.90;;;;;;5087367;27;20043;-64
2022/10/18 01:11:11;;;;;;;565.80;84.35;;;12.30;99.90;;;;;;5085332;27;20287;-65
2022/10/18 01:13:42;;;;;;;648.13;97.90;;;12.20;99.90;;;;;;5090714;27;20405;-65
2022/10/18 01:16:39;;;;;;;621.75;95.32;;;12.30;99.90;;;;;;5106098;27;20045;-65
2022/10/18 01:19:23;;;;;;;511.73;81.47;;;12.20;99.90;;;;;;5104033;27;20039;-64
2022/10/18 01:22:05;;;;;;;759.75;101.50;;;12.70;99.90;;;;;;5087306;27;20042;-65
2022/10/18 01:24:58;;;;;;;623.45;97.20;;;12.70;99.90;;;;;;5089478;27;20051;-65
2022/10/18 01:27:39;;;;;;;789.20;103.75;;;12.30;99.90;;;;;;5088937;27;20051;-66
2022/10/18 01:30:41;;;;;;;663.00;87.00;;;12.30;99.90;;;;;;5085151;27;20511;-65
2022/10/18 01:33:49;;;;;;;628.75;96.95;;;12.30;99.90;;;;;;5126098;27;20123;-65
2022/10/18 01:36:31;;;;;;;603.58;90.88;;;12.70;99.90;;;;;;5074420;27;20437;-65
2022/10/18 01:39:00;;;;;;;600.42;97.22;;;12.70;99.90;;;;;;5121452;27;20103;-65
2022/10/18 01:41:27;;;;;;;652.28;96.40;;;12.40;99.90;;;;;;5076911;27;20122;-65
2022/10/18 01:43:57;;;;;;;516.13;85.50;;;12.90;99.90;;;;;;5105163;27;20476;-65
2022/10/18 01:46:25;;;;;;;719.83;100.47;;;12.90;99.90;;;;;;5088355;27;20039;-65
2022/10/18 01:48:52;;;;;;;428.58;82.10;;;12.80;99.90;;;;;;5106786;27;20057;-65
2022/10/18 01:51:21;;;;;;;535.20;89.38;;;12.90;99.90;;;;;;5086891;27;20911;-65
2022/10/18 01:53:47;;;;;;;625.97;92.10;;;13.00;99.90;;;;;;5112060;27;20613;-65
2022/10/18 01:56:19;;;;;;;599.75;89.05;;;12.50;99.90;;;;;;5068961;27;20124;-65
2022/10/18 01:59:09;;;;;;;464.20;78.00;;;12.60;99.90;;;;;;5088723;27;20095;-65
2022/10/18 02:01:57;;;;;;;762.63;103.30;;;12.80;99.90;;;;;;5082490;28;20042;-65
2022/10/18 02:05:02;;;;;;;394.05;73.13;;;12.70;99.90;;;;;;5083831;27;20409;-65
2022/10/18 02:07:39;;;;;;;557.13;81.63;;;12.80;99.90;;;;;;5082018;28;20130;-65
2022/10/18 02:10:33;;;;;;;513.45;80.00;;;13.00;99.90;;;;;;5084318;27;20114;-64
2022/10/18 02:12:59;;;;;;;506.45;82.18;;;12.80;99.90;;;;;;5099409;27;20035;-65
2022/10/18 02:15:47;;;;;;;469.38;81.38;;;12.60;99.90;;;;;;5082528;28;20043;-67
2022/10/18 02:18:28;;;;;;;512.05;84.78;;;13.10;99.90;;;;;;5067241;27;20104;-65
2022/10/18 02:20:55;;;;;;;430.67;79.18;;;12.70;99.90;;;;;;5092384;27;20039;-66
2022/10/18 02:23:24;;;;;;;534.88;83.20;;;12.90;99.90;;;;;;5072443;28;20180;-64
2022/10/18 02:25:51;;;;;;;582.92;85.68;;;13.00;99.90;;;;;;5087315;27;20131;-65
2022/10/18 02:28:17;;;;;;;386.30;72.03;;;13.00;99.90;;;;;;5075806;28;20178;-65
2022/10/18 02:30:49;;;;;;;545.67;89.82;;;12.80;99.90;;;;;;5088564;28;20090;-65
2022/10/18 02:33:32;;;;;;;434.77;77.55;;;12.50;99.90;;;;;;5094083;28;20075;-65
2022/10/18 02:36:14;;;;;;;599.88;85.43;;;12.60;99.90;;;;;;5088928;28;20062;-64
2022/10/18 02:38:42;;;;;;;478.35;79.72;;;12.80;99.90;;;;;;5107360;28;20047;-66
2022/10/18 02:41:07;;;;;;;500.55;83.50;;;12.60;99.90;;;;;;5090517;28;20050;-64
2022/10/18 02:43:34;;;;;;;459.95;81.90;;;12.50;99.90;;;;;;5090263;27;20040;-64
2022/10/18 02:46:00;;;;;;;409.40;82.25;;;12.90;99.90;;;;;;5107705;28;20360;-66
2022/10/18 02:48:26;;;;;;;290.30;66.03;;;13.00;99.90;;;;;;5087127;28;20441;-64
2022/10/18 02:50:52;;;;;;;438.92;80.97;;;13.00;99.90;;;;;;5068562;28;20130;-65
2022/10/18 02:53:17;;;;;;;322.83;68.53;;;12.90;99.90;;;;;;5085585;28;20335;-65
2022/10/18 02:55:43;;;;;;;511.27;86.50;;;12.80;99.90;;;;;;5072601;28;20046;-64
2022/10/18 02:58:09;;;;;;;491.00;87.93;;;12.50;99.90;;;;;;5085011;28;20893;-65
2022/10/18 03:00:34;;;;;;;478.13;79.93;;;12.40;99.90;;;;;;5093235;28;20035;-65
2022/10/18 03:03:00;;;;;;;468.55;78.00;;;12.90;99.90;;;;;;5088759;28;20050;-66
2022/10/18 03:05:26;;;;;;;564.25;86.20;;;12.70;99.90;;;;;;5124010;27;20065;-65
2022/10/18 03:07:51;;;;;;;541.70;86.75;;;12.60;99.90;;;;;;5086571;28;20134;-64
2022/10/18 03:10:17;;;;;;;367.00;72.53;;;12.80;99.90;;;;;;5088170;28;20912;-65
2022/10/18 03:12:42;;;;;;;428.08;74.18;;;12.40;99.90;;;;;;5084815;28;20040;-65
2022/10/18 03:15:08;;;;;;;496.27;80.25;;;12.30;99.90;;;;;;5070513;28;20043;-64
2022/10/18 03:17:34;;;;;;;450.63;75.07;;;12.70;99.90;;;;;;5091306;28;20409;-66
2022/10/18 03:20:00;;;;;;;628.55;89.65;;;12.70;99.90;;;;;;5119627;27;20044;-66
2022/10/18 03:22:26;;;;;;;538.42;83.30;;;12.50;99.90;;;;;;5068651;28;20043;-65
2022/10/18 03:24:54;;;;;;;553.42;81.13;;;12.50;99.90;;;;;;5088673;28;20078;-65
2022/10/18 03:27:20;;;;;;;438.95;76.85;;;12.70;99.90;;;;;;5084518;28;20849;-66
2022/10/18 03:29:46;;;;;;;588.88;89.63;;;12.70;99.90;;;;;;5085666;28;20050;-66
2022/10/18 03:32:11;;;;;;;485.35;79.22;;;12.40;99.90;;;;;;5083386;28;20036;-65
2022/10/18 03:34:37;;;;;;;423.52;71.88;;;12.30;99.90;;;;;;5070306;28;20051;-65
2022/10/18 03:37:03;;;;;;;614.03;84.65;;;12.50;99.90;;;;;;5088815;28;20499;-66
2022/10/18 03:39:28;;;;;;;550.40;88.40;;;12.30;99.90;;;;;;5070197;28;20062;-65
2022/10/18 03:41:54;;;;;;;568.92;87.55;;;12.40;99.90;;;;;;5073817;27;20035;-66
2022/10/18 03:44:20;;;;;;;408.20;69.15;;;12.30;99.90;;;;;;5091685;27;20063;-65
2022/10/18 03:46:45;;;;;;;624.08;86.57;;;12.20;99.90;;;;;;5091855;27;20058;-65
2022/10/18 03:49:11;;;;;;;422.25;71.38;;;12.30;99.90;;;;;;5090734;27;20114;-64
2022/10/18 03:51:37;;;;;;;546.88;82.63;;;12.30;99.90;;;;;;5073481;27;20122;-66
2022/10/18 03:54:02;;;;;;;324.25;62.72;;;12.40;99.90;;;;;;5090495;27;20081;-66
2022/10/18 03:56:28;;;;;;;372.08;67.78;;;12.30;99.90;;;;;;5070664;28;20485;-65
2022/10/18 03:58:54;;;;;;;383.17;66.53;;;12.50;99.90;;;;;;5092615;27;20035;-65
2022/10/18 04:01:19;;;;;;;441.23;77.55;;;12.10;99.90;;;;;;5092090;27;20135;-65
2022/10/18 04:03:45;;;;;;;527.75;82.20;;;12.40;99.90;;;;;;5074239;27;20039;-65
2022/10/18 04:06:11;;;;;;;464.63;77.60;;;12.40;99.90;;;;;;5092793;27;20071;-65
2022/10/18 04:08:36;;;;;;;480.58;77.82;;;12.00;99.90;;;;;;5093558;27;20130;-65
2022/10/18 04:11:10;;;;;;;469.77;73.28;;;12.00;99.90;;;;;;5076644;27;20035;-64
2022/10/18 04:13:36;;;;;;;571.92;85.47;;;12.30;99.90;;;;;;5089190;27;20448;-65
2022/10/18 04:16:02;;;;;;;533.72;74.85;;;12.30;99.90;;;;;;5121065;27;20040;-64
2022/10/18 04:18:28;;;;;;;576.75;79.20;;;12.00;99.90;;;;;;5093767;27;20039;-65
2022/10/18 04:20:53;;;;;;;321.27;56.35;;;12.20;99.90;;;;;;5098042;27;20035;-65
2022/10/18 04:23:19;;;;;;;356.15;60.55;;;12.30;99.90;;;;;;5088548;27;20053;-65
2022/10/18 04:25:45;;;;;;;413.75;66.10;;;12.30;99.90;;;;;;5074355;27;20100;-64
2022/10/18 04:28:10;;;;;;;455.70;71.07;;;12.10;99.90;;;;;;5089900;27;20053;-65
2022/10/18 04:30:36;;;;;;;468.80;67.95;;;12.20;99.90;;;;;;5104035;27;20447;-65
2022/10/18 04:33:01;;;;;;;513.00;73.55;;;11.90;99.90;;;;;;5089738;27;20101;-65
2022/10/18 04:35:27;;;;;;;466.70;70.68;;;12.10;99.90;;;;;;5087671;27;20051;-65
2022/10/18 04:37:54;;;;;;;595.90;79.82;;;12.00;99.90;;;;;;5110444;27;20039;-65
2022/10/18 04:40:20;;;;;;;465.40;71.07;;;12.00;99.90;;;;;;5089762;27;20039;-66
2022/10/18 04:42:46;;;;;;;477.70;75.78;;;11.80;99.90;;;;;;5091654;27;20114;-65
2022/10/18 04:45:12;;;;;;;473.42;70.18;;;11.70;99.90;;;;;;5093899;27;20583;-66
2022/10/18 04:47:37;;;;;;;599.00;84.55;;;12.00;99.90;;;;;;5088326;27;20035;-65
2022/10/18 04:50:04;;;;;;;502.75;76.15;;;12.10;99.90;;;;;;5073742;27;20191;-66
2022/10/18 04:52:30;;;;;;;332.33;61.55;;;12.00;99.90;;;;;;5102004;27;20154;-65
2022/10/18 04:54:56;;;;;;;444.58;67.57;;;12.10;99.90;;;;;;5089969;27;20050;-65
2022/10/18 04:57:21;;;;;;;390.60;62.63;;;11.90;99.90;;;;;;5092944;27;20039;-65
2022/10/18 04:59:47;;;;;;;388.77;65.05;;;12.10;99.90;;;;;;5076019;27;20035;-65
2022/10/18 05:02:12;;;;;;;434.92;70.72;;;11.70;99.90;;;;;;5073884;27;20036;-66
2022/10/18 05:04:38;;;;;;;411.85;65.18;;;11.80;99.90;;;;;;5088645;28;20031;-65
2022/10/18 05:07:05;;;;;;;372.30;62.95;;;11.80;99.90;;;;;;5090315;27;20035;-66
2022/10/18 05:09:31;;;;;;;531.88;75.00;;;12.00;99.90;;;;;;5058488;27;20046;-65
2022/10/18 05:11:57;;;;;;;375.52;60.78;;;11.90;99.90;;;;;;5077381;27;20434;-66
2022/10/18 05:14:23;;;;;;;337.55;56.42;;;11.90;99.90;;;;;;5087353;27;20055;-65
2022/10/18 05:16:49;;;;;;;495.88;66.95;;;11.90;99.90;;;;;;5077000;27;20031;-65
2022/10/18 05:19:14;;;;;;;440.10;65.70;;;11.90;99.90;;;;;;5089923;27;20039;-65
2022/10/18 05:21:40;;;;;;;469.30;63.65;;;11.50;99.90;;;;;;5091092;27;20031;-64
2022/10/18 05:24:06;;;;;;;535.60;71.88;;;11.80;99.90;;;;;;5091117;27;20031;-65
2022/10/18 05:26:31;;;;;;;413.75;64.75;;;11.80;99.90;;;;;;5073916;27;20079;-65
2022/10/18 05:28:57;;;;;;;433.85;70.82;;;11.80;99.90;;;;;;5090116;27;20081;-65
2022/10/18 05:31:23;;;;;;;433.58;65.68;;;11.50;99.90;;;;;;5068998;28;20403;-65
2022/10/18 05:33:48;;;;;;;536.10;73.30;;;11.60;99.90;;;;;;5073334;28;20095;-67
2022/10/18 05:36:14;;;;;;;513.47;70.95;;;11.50;99.90;;;;;;5087037;27;20065;-64
2022/10/18 05:38:41;;;;;;;370.50;58.28;;;11.40;99.90;;;;;;5088039;27;20300;-65
2022/10/18 05:41:07;;;;;;;361.45;65.53;;;11.50;99.90;;;;;;5106506;27;20448;-66
2022/10/18 05:43:32;;;;;;;297.88;55.83;;;11.50;99.90;;;;;;5124833;27;20034;-65
2022/10/18 05:45:58;;;;;;;437.90;70.55;;;11.70;99.90;;;;;;5067907;27;20066;-65
2022/10/18 05:48:24;;;;;;;460.98;71.63;;;11.30;99.90;;;;;;5103649;27;20043;-65
2022/10/18 05:50:49;;;;;;;278.60;56.33;;;11.30;99.90;;;;;;5084487;28;20275;-65
2022/10/18 05:53:15;;;;;;;330.63;58.90;;;11.40;99.90;;;;;;5070082;28;20064;-65
2022/10/18 05:55:41;;;;;;;379.23;63.40;;;11.50;99.90;;;;;;5068242;28;20043;-65
2022/10/18 05:58:06;;;;;;;377.13;63.50;;;11.30;99.90;;;;;;5069283;28;20085;-65
2022/10/18 06:00:32;;;;;;;333.05;58.97;;;11.40;99.90;;;;;;5054879;27;20097;-65
2022/10/18 06:02:58;;;;;;;410.42;66.72;;;11.10;99.90;;;;;;5088252;27;20634;-65
2022/10/18 06:05:23;;;;;;;306.98;55.47;;;11.00;99.90;;;;;;5085145;28;20031;-64
2022/10/18 06:07:49;;;;;;;403.15;64.80;;;11.10;99.90;;;;;;5069625;27;20080;-64
2022/10/18 06:10:15;;;;;;;346.42;57.60;;;11.30;99.90;;;;;;5085846;28;20039;-64
2022/10/18 06:12:40;;;;;;;487.65;69.25;;;10.90;99.90;;;;;;5087985;28;20049;-63
2022/10/18 06:15:06;;;;;;;349.42;60.10;;;11.00;99.90;;;;;;5084926;28;20035;-65
2022/10/18 06:17:32;;;;;;;409.13;60.63;;;11.10;99.90;;;;;;5083617;28;20040;-65
2022/10/18 06:19:58;;;;;;;363.35;60.03;;;11.00;99.90;;;;;;5083021;28;20035;-64
2022/10/18 06:22:23;;;;;;;346.98;56.60;;;11.00;99.90;;;;;;5071997;28;20031;-65
2022/10/18 06:24:49;;;;;;;392.48;64.32;;;11.10;99.90;;;;;;5091547;27;20096;-66
2022/10/18 06:27:15;;;;;;;344.05;54.33;;;11.20;99.90;;;;;;5069484;28;20040;-64
2022/10/18 06:29:40;;;;;;;438.38;64.72;;;10.90;99.90;;;;;;5086236;28;20539;-64
2022/10/18 06:32:06;;;;;;;548.25;70.60;;;11.00;99.90;;;;;;5086196;28;20050;-64
2022/10/18 06:34:33;;;;;;;400.10;57.75;;;11.10;99.90;;;;;;5069044;27;20070;-65
2022/10/18 06:36:59;;;;;;;354.08;55.95;;;11.10;99.90;;;;;;5073801;28;20082;-63
2022/10/18 06:39:25;;;;;;;297.85;53.92;;;11.10;99.90;;;;;;5088029;28;20497;-64
2022/10/18 06:41:50;;;;;;;279.75;49.15;;;10.80;99.90;;;;;;5087990;28;20044;-64
2022/10/18 06:44:16;;;;;;;314.10;57.13;;;10.90;99.90;;;;;;5086737;28;20120;-64
2022/10/18 06:46:43;;;;;;;289.85;54.60;;;11.00;99.90;;;;;;5072975;28;20457;-64
2022/10/18 06:49:09;;;;;;;305.75;55.92;;;11.00;99.90;;;;;;5069247;28;20139;-64
2022/10/18 06:51:35;;;;;;;299.48;55.03;;;11.00;99.90;;;;;;5090001;28;20138;-64
2022/10/18 06:54:00;;;;;;;267.95;50.42;;;10.80;99.90;;;;;;5071257;28;20043;-65
2022/10/18 06:56:26;;;;;;;317.23;54.92;;;10.80;99.90;;;;;;5087579;28;20054;-64
2022/10/18 06:58:52;;;;;;;382.92;60.65;;;10.70;99.90;;;;;;5105110;28;20230;-65
2022/10/18 07:01:18;;;;;;;349.25;51.47;;;11.00;99.90;;;;;;5068778;28;20385;-65
2022/10/18 07:03:45;;;;;;;340.20;49.90;;;10.70;99.90;;;;;;5090512;28;20075;-65
2022/10/18 07:06:13;;;;;;;315.30;53.58;;;10.70;99.90;;;;;;5087466;28;20383;-65
2022/10/18 07:08:40;;;;;;;293.05;50.70;;;11.00;99.90;;;;;;5085866;28;20047;-65
2022/10/18 07:11:07;;;;;;;310.73;55.70;;;10.70;99.90;;;;;;5051412;28;20044;-65
2022/10/18 07:13:33;;;;;;;314.75;55.67;;;10.70;99.90;;;;;;5119561;27;20039;-64
2022/10/18 07:16:04;;;;;;;306.98;57.42;;;11.10;99.90;;;;;;5068303;28;20333;-65
2022/10/18 07:18:33;;;;;;;172.30;45.25;;;11.10;99.90;;;;;;5087747;27;20043;-64
2022/10/18 07:21:01;;;;;;;274.52;58.10;;;11.10;99.90;;;;;;5091934;27;20054;-64
2022/10/18 07:23:27;;;;;;;180.27;50.15;;;10.90;99.90;;;;;;5072721;27;20040;-66
2022/10/18 07:25:52;;;;;;;149.13;45.38;;;10.90;99.90;;;;;;5073889;27;20040;-64
2022/10/18 07:28:18;;;;;;;137.85;44.10;;;10.90;99.90;;;;;;5096829;27;20058;-65
2022/10/18 07:30:44;;;;;;;187.45;51.00;;;11.30;99.90;;;;;;5095023;27;20202;-65
2022/10/18 07:33:09;;;;;;;138.05;44.50;;;11.40;99.90;;;;;;5090930;27;20508;-64
2022/10/18 07:35:35;;;;;;;94.38;37.40;;;11.00;99.90;;;;;;5083628;28;20055;-65
2022/10/18 07:38:01;;;;;;;106.13;39.60;;;11.30;99.90;;;;;;5083647;28;20099;-65
2022/10/18 07:40:26;;;;;;;105.00;39.63;;;11.40;99.90;;;;;;5086849;28;20046;-65
2022/10/18 07:42:52;;;;;;;89.32;37.15;;;11.10;99.90;;;;;;5074045;28;20093;-65
2022/10/18 07:45:18;;;;;;;56.80;30.20;;;11.20;99.90;;;;;;5087534;28;20135;-65
2022/10/18 07:47:43;;;;;;;74.13;32.03;;;11.00;99.90;;;;;;5067556;28;20075;-65
2022/10/18 07:50:09;;;;;;;63.90;32.55;;;11.30;99.90;;;;;;5084796;28;20444;-64
2022/10/18 07:52:35;;;;;;;47.08;26.65;;;11.40;99.90;;;;;;5086306;28;20430;-65
2022/10/18 07:55:00;;;;;;;50.67;28.08;;;11.00;99.90;;;;;;5087259;28;20403;-65
2022/10/18 07:57:26;;;;;;;62.35;31.70;;;11.30;99.90;;;;;;5041742;28;20756;-65
2022/10/18 07:59:55;;;;;;;63.28;31.05;;;11.10;99.90;;;;;;5090661;28;20036;-66
2022/10/18 08:02:22;;;;;;;51.17;28.63;;;11.30;99.90;;;;;;5042698;28;20091;-65
2022/10/18 08:04:48;;;;;;;45.17;26.38;;;12.10;99.90;;;;;;5091672;28;20039;-65
2022/10/18 08:07:14;;;;;;;37.95;22.95;;;12.80;99.90;;;;;;5051518;28;20104;-65
2022/10/18 08:09:39;;;;;;;30.77;20.52;;;13.30;99.90;;;;;;5091089;28;20052;-65
2022/10/18 08:12:05;;;;;;;27.05;17.58;;;13.60;99.90;;;;;;5075394;28;20564;-65
2022/10/18 08:14:31;;;;;;;21.85;15.05;;;14.10;99.90;;;;;;5093421;28;20054;-64
2022/10/18 08:16:56;;;;;;;19.63;10.80;;;13.90;99.90;;;;;;5093683;28;20506;-65
2022/10/18 08:19:22;;;;;;;21.25;11.70;;;14.40;99.90;;;;;;5095526;28;20552;-64
2022/10/18 08:21:48;;;;;;;13.25;8.63;;;15.10;99.90;;;;;;5074383;28;20044;-65
2022/10/18 08:24:13;;;;;;;14.70;7.85;;;14.50;99.90;;;;;;5089675;28;20120;-64
2022/10/18 08:26:39;;;;;;;14.88;7.88;;;14.50;99.90;;;;;;5088081;28;20092;-65
2022/10/18 08:29:05;;;;;;;16.27;6.57;;;15.30;99.90;;;;;;5093788;28;20054;-65
2022/10/18 08:31:30;;;;;;;15.27;7.05;;;14.90;99.90;;;;;;5090882;28;20051;-66
2022/10/18 08:33:56;;;;;;;13.95;5.93;;;15.10;99.90;;;;;;5073339;28;20035;-65
2022/10/18 08:36:22;;;;;;;10.55;5.72;;;15.10;99.90;;;;;;5076221;28;20047;-65
2022/10/18 08:38:48;;;;;;;10.90;5.30;;;15.60;99.90;;;;;;5091107;28;20041;-65
2022/10/18 08:41:42;;;;;;;16.42;5.93;;;15.60;99.90;;;;;;5094193;28;20065;-65
2022/10/18 08:44:14;;;;;;;10.25;5.38;;;15.70;99.90;;;;;;5087629;28;20819;-65
2022/10/18 08:46:44;;;;;;;11.93;4.50;;;16.00;99.90;;;;;;5093545;28;20043;-65
2022/10/18 08:49:40;;;;;;;10.95;4.45;;;16.00;99.90;;;;;;5073414;28;20778;-65
2022/10/18 08:52:39;;;;;;;12.05;4.40;;;16.40;99.90;;;;;;5090539;28;20077;-65
2022/10/18 08:55:15;;;;;;;10.35;3.40;;;17.00;99.90;;;;;;5044037;28;20048;-66
2022/10/18 08:57:40;;;;;;;10.07;3.63;;;16.70;99.90;;;;;;5095056;28;20127;-65
2022/10/18 09:00:18;;;;;;;7.75;2.45;;;17.20;99.90;;;;;;5095680;28;20130;-65
2022/10/18 09:02:53;;;;;;;8.68;2.08;;;17.20;99.90;;;;;;5091068;28;20520;-67
2022/10/18 09:05:30;;;;;;;12.13;2.20;;;17.20;99.90;;;;;;5092068;28;20036;-65
2022/10/18 09:08:27;;;;;;;9.75;1.85;;;17.60;99.90;;;;;;5090295;28;20047;-66
2022/10/18 09:11:31;;;;;;;8.95;1.92;;;17.60;99.90;;;;;;5079138;28;20536;-66
2022/10/18 09:14:09;;;;;;;10.18;1.30;;;17.60;99.90;;;;;;5090657;28;20043;-67
2022/10/18 09:16:46;;;;;;;7.93;1.30;;;17.50;99.90;;;;;;5086060;28;20052;-65
2022/10/18 09:19:36;;;;;;;14.07;1.60;;;17.80;99.90;;;;;;5069700;28;20123;-65
2022/10/18 09:22:12;;;;;;;8.60;0.95;;;17.90;99.90;;;;;;5089847;28;20035;-65
2022/10/18 09:24:45;;;;;;;11.05;1.13;;;18.40;99.90;;;;;;5069778;28;20047;-64
2022/10/18 09:27:16;;;;;;;14.70;1.20;;;18.00;99.90;;;;;;5090659;28;20046;-65
2022/10/18 09:29:44;;;;;;;8.45;1.10;;;18.00;99.90;;;;;;5088914;28;20050;-65
2022/10/18 09:32:29;;;;;;;9.25;0.88;;;18.50;99.90;;;;;;5089090;28;20043;-66
2022/10/18 09:35:09;;;;;;;9.93;1.10;;;18.40;99.90;;;;;;5088090;28;20116;-65
2022/10/18 09:37:35;;;;;;;14.85;1.30;;;18.20;99.90;;;;;;5071261;28;20044;-65
2022/10/18 09:40:15;;;;;;;12.93;1.60;;;18.20;99.90;;;;;;5069079;28;20054;-65
2022/10/18 09:42:59;;;;;;;13.40;1.27;;;18.20;99.90;;;;;;5106123;27;20046;-65
2022/10/18 09:45:36;;;;;;;15.38;1.50;;;18.40;99.90;;;;;;5092356;28;20051;-65
2022/10/18 09:48:12;;;;;;;8.98;1.17;;;18.70;99.90;;;;;;5090707;28;20400;-65
2022/10/18 09:50:40;;;;;;;10.02;1.40;;;18.70;99.90;;;;;;5088653;28;20455;-66
2022/10/18 09:53:17;;;;;;;10.93;1.17;;;19.00;99.90;;;;;;5071972;28;20069;-65
2022/10/18 09:56:02;;;;;;;14.02;1.50;;;18.90;99.90;;;;;;5089513;28;20127;-66
2022/10/18 09:58:39;;;;;;;14.98;1.80;;;18.50;99.90;;;;;;5087345;28;20122;-66
2022/10/18 10:01:06;;;;;;;10.43;1.30;;;18.60;99.90;;;;;;5085970;28;20047;-66
2022/10/18 10:03:34;;;;;;;15.85;1.35;;;18.90;99.90;;;;;;5072137;28;20261;-66
2022/10/18 10:06:13;;;;;;;10.23;1.60;;;18.80;99.90;;;;;;5083576;28;20492;-66
2022/10/18 10:08:47;;;;;;;12.90;1.10;;;19.00;99.90;;;;;;5086125;28;20063;-66
2022/10/18 10:11:46;;;;;;;11.35;1.00;;;19.30;99.90;;;;;;5087611;28;20047;-65
2022/10/18 10:14:14;;;;;;;7.45;0.95;;;19.10;99.90;;;;;;5037164;28;20052;-67
2022/10/18 10:17:02;;;;;;;11.90;1.33;;;19.00;99.90;;;;;;5089131;28;20046;-66
2022/10/18 10:19:58;;;;;;;13.88;1.17;;;18.80;99.90;;;;;;5088528;28;20038;-65
2022/10/18 10:22:34;;;;;;;13.43;1.33;;;19.20;99.90;;;;;;5080888;28;20043;-66
2022/10/18 10:25:01;;;;;;;15.25;1.63;;;18.90;99.90;;;;;;5091574;28;20577;-66
2022/10/18 10:27:39;;;;;;;15.95;2.08;;;19.30;99.90;;;;;;5086973;28;20069;-65
2022/10/18 10:30:22;;;;;;;12.35;1.30;;;18.50;99.90;;;;;;5089493;28;20181;-65
2022/10/18 10:32:49;;;;;;;11.55;1.08;;;18.50;99.90;;;;;;5092720;28;20493;-64
2022/10/18 10:35:31;;;;;;;9.55;1.20;;;18.30;99.90;;;;;;5066400;28;20052;-65
2022/10/18 10:37:56;;;;;;;15.20;1.30;;;18.10;99.90;;;;;;5075994;28;20043;-65
2022/10/18 10:40:25;;;;;;;10.00;1.05;;;17.90;99.90;;;;;;5084945;28;20048;-65
2022/10/18 10:43:36;;;;;;;9.05;0.75;;;17.90;99.90;;;;;;5086765;28;20046;-65
2022/10/18 10:46:04;;;;;;;15.32;1.30;;;17.40;99.90;;;;;;4996136;28;20103;-65
2022/10/18 10:48:45;;;;;;;9.32;1.00;;;17.30;99.90;;;;;;5076905;28;20052;-65
2022/10/18 10:51:12;;;;;;;12.25;1.20;;;17.40;99.90;;;;;;5088230;28;20051;-65
2022/10/18 10:53:58;;;;;;;8.18;0.90;;;17.70;99.90;;;;;;5095401;28;20070;-66
2022/10/18 10:56:30;;;;;;;12.95;1.25;;;18.10;99.90;;;;;;5095346;28;20409;-66
2022/10/18 10:59:05;;;;;;;10.80;0.98;;;18.80;99.90;;;;;;5076786;28;20054;-66
2022/10/18 11:01:32;;;;;;;11.48;0.95;;;19.40;99.90;;;;;;5091934;28;20039;-65
2022/10/18 11:04:01;;;;;;;13.77;1.42;;;20.00;99.90;;;;;;5077238;28;20043;-66
2022/10/18 11:06:30;;;;;;;8.85;1.15;;;20.20;99.90;;;;;;5091475;28;20416;-66
2022/10/18 11:08:59;;;;;;;9.73;1.45;;;20.00;99.90;;;;;;5076224;28;20802;-66
2022/10/18 11:11:36;;;;;;;13.38;1.27;;;19.30;99.90;;;;;;5088955;28;20046;-66
2022/10/18 11:14:21;;;;;;;14.52;1.52;;;19.00;99.90;;;;;;5089961;28;20090;-66
2022/10/18 11:17:04;;;;;;;10.25;0.85;;;18.60;99.90;;;;;;5089529;28;20044;-66
2022/10/18 11:19:51;;;;;;;12.27;1.25;;;18.60;99.90;;;;;;5093120;28;20100;-66
2022/10/18 11:22:21;;;;;;;10.23;1.20;;;19.40;99.90;;;;;;5066878;28;20796;-66
2022/10/18 11:24:47;;;;;;;12.82;1.10;;;19.00;99.90;;;;;;5090655;28;20290;-66
2022/10/18 11:27:29;;;;;;;12.60;1.30;;;19.00;99.90;;;;;;5105126;27;20500;-65
2022/10/18 11:30:39;;;;;;;12.43;1.10;;;19.50;99.90;;;;;;5091292;28;20389;-65
2022/10/18 11:33:44;;;;;;;12.75;1.20;;;19.60;99.90;;;;;;5089549;28;20047;-65
2022/10/18 11:36:18;;;;;;;9.63;0.90;;;20.40;99.90;;;;;;5075495;28;20051;-66
2022/10/18 11:38:49;;;;;;;13.90;1.05;;;20.20;99.90;;;;;;5093246;28;20043;-66
2022/10/18 11:41:25;;;;;;;7.40;0.90;;;20.40;99.90;;;;;;5091495;28;20058;-66
2022/10/18 11:44:07;;;;;;;11.88;0.98;;;20.10;99.90;;;;;;5090012;28;20590;-66
2022/10/18 11:47:11;;;;;;;7.57;0.88;;;20.10;99.90;;;;;;5091637;28;20091;-65
2022/10/18 11:50:00;;;;;;;;;;;20.00;99.90;;;;;;5041697;28;20055;-66
2022/10/18 11:52:40;;;;;;;9.07;0.70;;;19.90;99.90;;;;;;5123661;27;19915;-65
2022/10/18 11:55:09;;;;;;;11.23;1.20;;;20.10;99.90;;;;;;5090900;28;20413;-66
2022/10/18 11:57:53;;;;;;;8.00;1.10;;;20.20;99.90;;;;;;5091554;28;20517;-65
2022/10/18 12:00:21;;;;;;;9.98;1.10;;;19.90;99.90;;;;;;5090239;28;20036;-65
2022/10/18 12:03:12;;;;;;;11.50;1.13;;;20.00;99.90;;;;;;5091502;28;20050;-66
2022/10/18 12:05:40;;;;;;;10.93;0.95;;;20.00;99.90;;;;;;5099680;27;20519;-65
2022/10/18 12:08:21;;;;;;;9.85;1.10;;;19.90;99.90;;;;;;5095489;28;20055;-65
2022/10/18 12:10:55;;;;;;;9.00;1.00;;;19.40;99.90;;;;;;5109781;27;20102;-65
2022/10/18 12:13:45;;;;;;;12.82;1.08;;;19.60;99.90;;;;;;5089143;28;20779;-66
2022/10/18 12:16:11;;;;;;;12.50;1.10;;;20.40;99.90;;;;;;5090774;28;20048;-65
2022/10/18 12:19:03;;;;;;;10.88;1.20;;;20.80;99.90;;;;;;5094622;28;20126;-66
2022/10/18 12:21:32;;;;;;;9.60;1.00;;;20.90;99.90;;;;;;5088941;28;20470;-65
2022/10/18 12:24:02;;;;;;;11.77;1.23;;;21.20;99.90;;;;;;5090748;28;20047;-66
2022/10/18 12:26:28;;;;;;;9.48;1.15;;;21.10;99.90;;;;;;5073418;28;20039;-64
2022/10/18 12:29:25;;;;;;;8.65;0.80;;;20.10;99.90;;;;;;5093118;28;20045;-66
2022/10/18 12:31:55;;;;;;;11.80;0.90;;;19.70;99.90;;;;;;5088435;28;20047;-66
2022/10/18 12:34:21;;;;;;;11.80;1.38;;;19.90;99.90;;;;;;5092520;27;20382;-65
2022/10/18 12:37:12;;;;;;;11.70;0.90;;;19.00;99.90;;;;;;5091104;27;20061;-64
2022/10/18 12:39:52;;;;;;;13.20;1.25;;;18.40;99.90;;;;;;5108918;27;20088;-64
2022/10/18 12:42:21;;;;;;;11.43;1.20;;;17.70;99.90;;;;;;5093048;27;20039;-64
2022/10/18 12:44:48;;;;;;;11.70;1.15;;;17.30;99.90;;;;;;5110393;27;20486;-65
2022/10/18 12:47:23;;;;;;;16.65;1.73;;;16.50;99.90;;;;;;5115248;27;20043;-64